createdAt,value
2023-04-18T00:02:23.042Z,12.88
2023-04-18T00:05:27.296Z,12.74
2023-04-18T00:08:30.243Z,12.89
2023-04-18T00:11:34.630Z,12.84
2023-04-18T00:14:38.198Z,12.82
2023-04-18T00:17:41.161Z,12.79
2023-04-18T00:20:43.842Z,12.83
2023-04-18T00:23:46.912Z,12.75
2023-04-18T00:26:49.705Z,12.68
2023-04-18T00:29:54.658Z,12.66
2023-04-18T00:32:57.524Z,12.73
2023-04-18T00:36:00.581Z,12.70
2023-04-18T00:39:03.586Z,12.74
2023-04-18T00:42:07.065Z,12.69
2023-04-18T00:45:10.257Z,12.61
2023-04-18T00:48:13.466Z,12.62
2023-04-18T00:51:16.623Z,12.66
2023-04-18T00:54:20.605Z,12.61
2023-04-18T00:57:23.129Z,12.65
2023-04-18T01:00:29.389Z,12.68
2023-04-18T01:03:33.052Z,12.58
2023-04-18T01:06:37.162Z,12.57
2023-04-18T01:09:40.535Z,12.55
2023-04-18T01:12:43.565Z,12.43
2023-04-18T01:15:49.214Z,12.47
2023-04-18T01:18:52.459Z,12.43
2023-04-18T01:21:55.191Z,12.38
2023-04-18T01:24:58.722Z,12.44
2023-04-18T01:28:01.843Z,12.37
2023-04-18T01:31:05.632Z,12.42
2023-04-18T01:34:08.649Z,12.38
2023-04-18T01:37:11.980Z,12.45
2023-04-18T01:40:16.148Z,12.39
2023-04-18T01:43:21.201Z,12.36
2023-04-18T01:46:23.922Z,12.34
2023-04-18T01:49:27.039Z,12.40
2023-04-18T01:52:30.003Z,12.33
2023-04-18T01:55:32.951Z,12.39
2023-04-18T01:58:36.034Z,12.40
2023-04-18T02:01:38.966Z,12.53
2023-04-18T02:04:44.963Z,12.57
2023-04-18T02:07:50.166Z,12.35
2023-04-18T02:10:53.268Z,12.40
2023-04-18T02:13:57.605Z,12.41
2023-04-18T02:17:00.837Z,12.43
2023-04-18T02:20:04.099Z,12.50
2023-04-18T02:23:07.403Z,12.55
2023-04-18T02:26:10.050Z,12.57
2023-04-18T02:29:15.733Z,12.58
2023-04-18T02:32:19.351Z,12.55
2023-04-18T02:35:23.110Z,12.46
2023-04-18T02:38:25.771Z,12.23
2023-04-18T02:41:28.818Z,12.14
2023-04-18T02:44:31.416Z,11.98
2023-04-18T02:47:43.873Z,12.05
2023-04-18T02:51:03.463Z,11.96
2023-04-18T02:54:07.523Z,11.92
2023-04-18T02:57:10.945Z,11.87
2023-04-18T03:00:15.076Z,11.89
2023-04-18T03:03:22.464Z,11.90
2023-04-18T03:06:27.288Z,11.94
2023-04-18T03:09:33.765Z,11.88
2023-04-18T03:12:37.576Z,11.82
2023-04-18T03:15:40.538Z,11.84
2023-04-18T03:18:44.232Z,11.90
2023-04-18T03:21:48.164Z,11.91
2023-04-18T03:24:51.367Z,11.90
2023-04-18T03:27:54.333Z,12.00
2023-04-18T03:30:57.572Z,12.02
2023-04-18T03:34:00.921Z,12.02
2023-04-18T03:37:04.033Z,11.98
2023-04-18T03:40:08.385Z,12.01
2023-04-18T03:43:11.789Z,11.96
2023-04-18T03:46:14.955Z,11.96
2023-04-18T03:49:18.670Z,11.95
2023-04-18T03:52:21.482Z,11.95
2023-04-18T03:55:26.531Z,11.99
2023-04-18T03:58:30.007Z,11.96
2023-04-18T04:01:33.271Z,11.97
2023-04-18T04:04:37.572Z,11.89
2023-04-18T04:07:40.546Z,11.82
2023-04-18T04:10:44.120Z,11.86
2023-04-18T04:13:48.147Z,11.92
2023-04-18T04:16:52.916Z,11.91
2023-04-18T04:19:56.173Z,12.03
2023-04-18T04:23:00.126Z,12.01
2023-04-18T04:26:07.120Z,12.03
2023-04-18T04:29:19.582Z,12.07
2023-04-18T04:32:31.455Z,12.03
2023-04-18T04:35:36.923Z,11.91
2023-04-18T04:38:41.668Z,11.91
2023-04-18T04:41:47.868Z,11.90
2023-04-18T04:44:56.825Z,11.89
2023-04-18T04:48:01.527Z,11.85
2023-04-18T04:51:05.623Z,11.81
2023-04-18T04:54:09.712Z,11.85
2023-04-18T04:57:14.024Z,11.81
2023-04-18T05:00:21.358Z,11.90
2023-04-18T05:03:25.616Z,11.96
2023-04-18T05:06:30.207Z,11.86
2023-04-18T05:09:34.134Z,11.81
2023-04-18T05:12:39.491Z,11.82
2023-04-18T05:15:45.386Z,11.85
2023-04-18T05:18:51.381Z,11.73
2023-04-18T05:21:55.152Z,11.86
2023-04-18T05:25:00.825Z,11.90
2023-04-18T05:28:08.597Z,11.92
2023-04-18T05:31:16.266Z,12.03
2023-04-18T05:34:20.357Z,12.15
2023-04-18T05:37:25.473Z,12.25
2023-04-18T05:40:30.051Z,12.36
2023-04-18T05:43:34.053Z,12.39
2023-04-18T05:46:37.462Z,12.35
2023-04-18T05:49:41.867Z,12.58
2023-04-18T05:52:46.069Z,12.81
2023-04-18T05:55:50.652Z,12.81
2023-04-18T05:58:56.593Z,12.85
2023-04-18T06:02:00.379Z,13.00
2023-04-18T06:05:04.557Z,13.08
2023-04-18T06:08:08.188Z,13.06
2023-04-18T06:11:11.899Z,13.09
2023-04-18T06:14:16.302Z,13.02
2023-04-18T06:17:19.927Z,13.07
2023-04-18T06:20:24.914Z,13.16
2023-04-18T06:23:43.414Z,13.12
2023-04-18T06:27:51.318Z,13.17
2023-04-18T06:30:54.517Z,13.29
2023-04-18T06:34:03.525Z,13.39
2023-04-18T06:46:10.657Z,14.23
2023-04-18T06:53:44.751Z,14.51
2023-04-18T06:56:48.672Z,14.56
2023-04-18T07:00:04.908Z,14.12
2023-04-18T07:03:32.254Z,14.29
2023-04-18T07:06:35.559Z,14.45
2023-04-18T07:10:49.578Z,14.66
2023-04-18T07:18:20.547Z,14.86
2023-04-18T07:21:55.447Z,15.04
2023-04-18T07:25:21.375Z,15.22
2023-04-18T07:28:46.526Z,15.36
2023-04-18T07:31:52.676Z,15.25
2023-04-18T07:34:57.463Z,15.16
2023-04-18T07:38:16.467Z,15.09
2023-04-18T07:41:20.475Z,14.73
2023-04-18T07:44:25.544Z,15.00
2023-04-18T07:47:30.383Z,15.36
2023-04-18T07:50:34.846Z,15.49
2023-04-18T07:53:40.948Z,15.52
2023-04-18T07:56:47.589Z,15.86
2023-04-18T07:59:55.348Z,16.24
2023-04-18T08:03:02.943Z,16.57
2023-04-18T08:06:06.717Z,16.61
2023-04-18T08:09:10.438Z,16.26
2023-04-18T08:12:15.460Z,16.24
2023-04-18T08:15:19.521Z,16.00
2023-04-18T08:18:31.679Z,15.83
2023-04-18T08:21:38.384Z,16.05
2023-04-18T08:24:57.267Z,15.88
2023-04-18T08:28:06.968Z,15.77
2023-04-18T08:31:15.113Z,15.83
2023-04-18T08:34:19.556Z,15.78
2023-04-18T08:37:22.664Z,16.11
2023-04-18T08:40:25.785Z,16.65
2023-04-18T08:43:31.131Z,16.81
2023-04-18T08:46:38.536Z,18.17
2023-04-18T08:49:45.805Z,20.19
2023-04-18T08:52:53.838Z,20.60
2023-04-18T08:55:58.163Z,21.78
2023-04-18T08:59:01.280Z,20.59
2023-04-18T09:02:09.075Z,21.01
2023-04-18T09:05:13.778Z,20.50
2023-04-18T09:08:27.891Z,20.76
2023-04-18T09:11:32.056Z,20.54
2023-04-18T09:14:43.068Z,20.46
2023-04-18T09:17:53.198Z,20.68
2023-04-18T09:20:57.345Z,21.23
2023-04-18T09:24:21.020Z,22.12
2023-04-18T09:27:24.938Z,22.55
2023-04-18T09:30:42.300Z,22.37
2023-04-18T09:33:56.944Z,22.08
2023-04-18T09:37:07.782Z,22.45
2023-04-18T09:40:19.111Z,20.62
2023-04-18T09:43:22.053Z,21.63
2023-04-18T09:46:27.466Z,22.29
2023-04-18T09:49:30.990Z,21.91
2023-04-18T09:52:36.305Z,22.55
2023-04-18T09:55:40.342Z,21.16
2023-04-18T09:58:47.734Z,20.84
2023-04-18T10:02:29.560Z,22.60
2023-04-18T10:05:40.871Z,22.36
2023-04-18T10:08:54.933Z,22.50
2023-04-18T10:12:06.077Z,23.16
2023-04-18T10:15:11.934Z,22.46
2023-04-18T10:18:21.430Z,22.16
2023-04-18T10:21:24.296Z,21.35
2023-04-18T10:24:52.987Z,22.33
2023-04-18T10:28:03.783Z,21.36
2023-04-18T10:31:10.218Z,21.74
2023-04-18T10:34:18.249Z,21.22
2023-04-18T10:37:32.181Z,21.56
2023-04-18T10:40:37.471Z,21.00
2023-04-18T10:44:08.951Z,20.48
2023-04-18T10:47:22.355Z,20.28
2023-04-18T10:50:28.846Z,20.89
2023-04-18T10:53:31.636Z,20.70
2023-04-18T10:56:37.897Z,19.63
2023-04-18T10:59:52.282Z,19.88
2023-04-18T11:02:57.644Z,21.01
2023-04-18T11:06:13.017Z,21.92
2023-04-18T11:09:19.369Z,22.87
2023-04-18T11:12:22.628Z,22.03
2023-04-18T11:15:30.384Z,20.78
2023-04-18T11:18:43.937Z,20.86
2023-04-18T11:21:49.920Z,21.29
2023-04-18T11:25:00.644Z,20.88
2023-04-18T11:28:06.947Z,20.97
2023-04-18T11:31:10.887Z,19.74
2023-04-18T11:34:16.962Z,20.03
2023-04-18T11:37:20.005Z,19.98
2023-04-18T11:40:24.571Z,20.53
2023-04-18T11:43:45.803Z,20.65
2023-04-18T11:46:53.155Z,20.75
2023-04-18T11:49:58.980Z,21.54
2023-04-18T11:53:06.747Z,21.32
2023-04-18T11:56:13.631Z,19.92
2023-04-18T11:59:19.873Z,20.70
2023-04-18T12:02:26.487Z,19.76
2023-04-18T12:05:34.115Z,19.58
2023-04-18T12:08:37.330Z,19.21
2023-04-18T12:11:42.094Z,19.50
2023-04-18T12:14:46.301Z,19.59
2023-04-18T12:17:53.299Z,19.75
2023-04-18T12:20:57.358Z,19.47
2023-04-18T12:24:13.288Z,19.19
2023-04-18T12:27:16.696Z,19.09
2023-04-18T12:30:22.860Z,18.60
2023-04-18T12:33:27.351Z,19.06
2023-04-18T12:36:32.778Z,18.92
2023-04-18T12:39:37.296Z,19.00
2023-04-18T12:42:44.520Z,19.14
2023-04-18T12:45:47.837Z,19.25
2023-04-18T12:48:51.987Z,19.09
2023-04-18T12:51:56.213Z,18.85
2023-04-18T12:55:00.144Z,18.99
2023-04-18T12:58:03.710Z,18.52
2023-04-18T13:01:07.715Z,18.32
2023-04-18T13:04:12.869Z,18.39
2023-04-18T13:07:16.265Z,18.60
2023-04-18T13:10:21.372Z,18.68
2023-04-18T13:13:24.343Z,18.70
2023-04-18T13:16:27.745Z,18.56
2023-04-18T13:19:31.103Z,18.69
2023-04-18T13:22:34.291Z,18.77
2023-04-18T13:25:37.275Z,18.55
2023-04-18T13:28:39.861Z,18.68
2023-04-18T13:31:43.482Z,18.65
2023-04-18T13:34:48.217Z,18.60
2023-04-18T13:37:51.302Z,18.49
2023-04-18T13:41:04.456Z,18.66
2023-04-18T13:44:14.520Z,18.42
2023-04-18T13:47:17.317Z,18.41
2023-04-18T13:50:20.389Z,18.26
2023-04-18T13:53:23.326Z,18.50
2023-04-18T13:56:27.675Z,18.30
2023-04-18T13:59:33.702Z,18.23
2023-04-18T14:02:45.294Z,17.89
2023-04-18T14:05:51.828Z,17.74
2023-04-18T14:08:54.787Z,17.75
2023-04-18T14:12:01.246Z,17.74
2023-04-18T14:15:06.056Z,17.84
2023-04-18T14:18:09.563Z,17.90
2023-04-18T14:21:13.399Z,17.89
2023-04-18T14:24:17.078Z,18.04
2023-04-18T14:27:20.094Z,17.88
2023-04-18T14:30:25.753Z,17.91
2023-04-18T14:33:30.221Z,17.90
2023-04-18T14:36:33.281Z,17.96
2023-04-18T14:39:39.322Z,17.93
2023-04-18T14:42:44.743Z,17.85
2023-04-18T14:45:47.847Z,17.98
2023-04-18T14:48:51.597Z,17.69
2023-04-18T14:51:54.382Z,17.77
2023-04-18T14:54:58.780Z,17.80
2023-04-18T14:58:01.764Z,17.74
2023-04-18T15:01:05.273Z,17.80
2023-04-18T15:04:08.708Z,17.83
2023-04-18T15:07:11.753Z,17.59
2023-04-18T15:10:16.510Z,17.30
2023-04-18T15:13:22.309Z,17.52
2023-04-18T15:16:24.973Z,17.39
2023-04-18T15:19:29.473Z,17.33
2023-04-18T15:22:32.324Z,17.23
2023-04-18T15:25:36.351Z,17.19
2023-04-18T15:28:40.730Z,17.25
2023-04-18T15:31:45.775Z,17.31
2023-04-18T15:34:50.902Z,17.36
2023-04-18T15:37:54.413Z,17.26
2023-04-18T15:40:57.710Z,17.32
2023-04-18T15:44:01.634Z,17.33
2023-04-18T15:47:05.500Z,17.36
2023-04-18T15:50:09.885Z,17.28
2023-04-18T15:53:15.332Z,17.25
2023-04-18T15:56:19.937Z,17.19
2023-04-18T15:59:23.716Z,17.29
2023-04-18T16:02:27.126Z,17.21
2023-04-18T16:05:33.132Z,17.22
2023-04-18T16:08:36.847Z,17.29
2023-04-18T16:11:40.792Z,17.33
2023-04-18T16:14:47.203Z,17.26
2023-04-18T16:17:52.335Z,17.31
2023-04-18T16:20:55.666Z,17.31
2023-04-18T16:23:59.638Z,17.27
2023-04-18T16:27:03.010Z,17.13
2023-04-18T16:30:06.951Z,17.19
2023-04-18T16:33:10.005Z,17.17
2023-04-18T16:36:13.419Z,17.20
2023-04-18T16:39:16.805Z,17.16
2023-04-18T16:42:20.564Z,17.10
2023-04-18T16:45:24.510Z,17.02
2023-04-18T16:48:29.035Z,17.18
2023-04-18T16:51:32.166Z,17.14
2023-04-18T16:54:36.889Z,16.99
2023-04-18T16:57:39.824Z,16.91
2023-04-18T17:00:43.105Z,16.78
2023-04-18T17:03:45.956Z,16.84
2023-04-18T17:06:51.468Z,16.82
2023-04-18T17:09:54.801Z,16.76
2023-04-18T17:12:58.912Z,16.71
2023-04-18T17:16:02.022Z,16.64
2023-04-18T17:19:05.373Z,16.57
2023-04-18T17:22:08.050Z,16.50
2023-04-18T17:25:12.627Z,16.38
2023-04-18T17:28:17.018Z,16.36
2023-04-18T17:31:20.454Z,16.29
2023-04-18T17:34:23.887Z,16.12
2023-04-18T17:37:29.098Z,16.10
2023-04-18T17:40:32.878Z,16.12
2023-04-18T17:43:37.490Z,15.99
2023-04-18T17:46:41.069Z,15.87
2023-04-18T17:49:44.434Z,15.86
2023-04-18T17:52:47.485Z,15.82
2023-04-18T17:55:52.517Z,15.84
2023-04-18T17:58:56.726Z,15.70
2023-04-18T18:02:01.456Z,15.63
2023-04-18T18:05:09.029Z,15.63
2023-04-18T18:08:19.997Z,15.62
2023-04-18T18:11:25.691Z,15.63
2023-04-18T18:14:29.524Z,15.60
2023-04-18T18:17:33.276Z,15.49
2023-04-18T18:20:36.711Z,15.57
2023-04-18T18:23:42.187Z,15.56
2023-04-18T18:26:47.102Z,15.50
2023-04-18T18:29:51.756Z,15.43
2023-04-18T18:33:03.524Z,15.46
2023-04-18T18:36:10.490Z,15.53
2023-04-18T18:39:16.596Z,15.53
2023-04-18T18:42:23.832Z,15.42
2023-04-18T18:45:27.328Z,15.46
2023-04-18T18:48:33.148Z,15.40
2023-04-18T18:51:37.219Z,15.38
2023-04-18T18:54:41.988Z,15.33
2023-04-18T18:57:46.191Z,15.22
2023-04-18T19:00:51.646Z,15.11
2023-04-18T19:03:56.501Z,15.14
2023-04-18T19:07:02.876Z,15.18
2023-04-18T19:10:07.086Z,15.18
2023-04-18T19:13:10.720Z,15.11
2023-04-18T19:16:16.694Z,14.98
2023-04-18T19:19:20.559Z,14.99
2023-04-18T19:22:23.856Z,14.98
2023-04-18T19:25:29.700Z,15.06
2023-04-18T19:28:32.692Z,14.99
2023-04-18T19:31:36.655Z,14.93
2023-04-18T19:34:40.368Z,14.86
2023-04-18T19:37:47.549Z,14.77
2023-04-18T19:40:50.992Z,14.74
2023-04-18T19:43:55.106Z,14.77
2023-04-18T19:46:58.365Z,14.65
2023-04-18T19:50:01.981Z,14.78
2023-04-18T19:53:06.703Z,14.73
2023-04-18T19:56:16.792Z,14.67
2023-04-18T19:59:20.220Z,14.63
2023-04-18T20:02:26.847Z,14.64
2023-04-18T20:05:31.137Z,14.52
2023-04-18T20:08:38.717Z,14.55
2023-04-18T20:11:43.776Z,14.50
2023-04-18T20:14:46.881Z,14.51
2023-04-18T20:17:50.861Z,14.55
2023-04-18T20:20:58.432Z,14.44
2023-04-18T20:24:02.017Z,14.49
2023-04-18T20:27:05.057Z,14.53
2023-04-18T20:30:12.726Z,14.54
2023-04-18T20:33:16.137Z,14.51
2023-04-18T20:39:54.072Z,14.24
2023-04-18T20:43:03.334Z,14.09
2023-04-18T20:46:07.440Z,14.13
2023-04-18T20:49:11.457Z,14.32
2023-04-18T20:52:14.497Z,14.33
2023-04-18T20:55:19.009Z,14.32
2023-04-18T20:58:25.937Z,14.37
2023-04-18T21:01:29.762Z,14.31
2023-04-18T21:04:34.566Z,14.34
2023-04-18T21:07:37.914Z,14.35
2023-04-18T21:10:41.765Z,14.35
2023-04-18T21:13:46.193Z,14.30
2023-04-18T21:16:49.285Z,14.33
2023-04-18T21:19:53.541Z,14.23
2023-04-18T21:22:57.673Z,14.32
2023-04-18T21:26:02.477Z,14.25
2023-04-18T21:29:05.390Z,14.26
2023-04-18T21:32:12.509Z,14.27
2023-04-18T21:35:19.831Z,14.27
2023-04-18T21:38:25.623Z,14.31
2023-04-18T21:41:28.523Z,14.27
2023-04-18T21:44:31.588Z,14.20
2023-04-18T21:47:34.411Z,14.21
2023-04-18T21:50:37.705Z,14.22
2023-04-18T21:53:41.460Z,14.17
2023-04-18T21:56:44.789Z,14.20
2023-04-18T21:59:47.548Z,14.15
2023-04-18T22:02:51.663Z,14.15
2023-04-18T22:05:58.027Z,14.10
2023-04-18T22:09:01.283Z,14.05
2023-04-18T22:12:05.319Z,13.93
2023-04-18T22:15:08.362Z,14.02
2023-04-18T22:18:14.249Z,13.92
2023-04-18T22:21:17.435Z,13.95
2023-04-18T22:24:21.961Z,13.92
2023-04-18T22:27:25.549Z,13.80
2023-04-18T22:30:28.771Z,13.85
2023-04-18T22:33:31.757Z,13.85
2023-04-18T22:36:40.051Z,13.90
2023-04-18T22:39:42.680Z,13.77
2023-04-18T22:42:46.033Z,13.73
2023-04-18T22:45:48.768Z,13.74
2023-04-18T22:48:53.121Z,13.73
2023-04-18T22:51:58.656Z,13.79
2023-04-18T22:55:02.880Z,13.63
2023-04-18T22:58:05.925Z,13.74
2023-04-18T23:01:14.745Z,13.62
2023-04-18T23:04:17.581Z,13.66
2023-04-18T23:07:21.699Z,13.59
2023-04-18T23:10:24.501Z,13.61
2023-04-18T23:13:28.257Z,13.63
2023-04-18T23:16:34.997Z,13.63
2023-04-18T23:19:41.906Z,13.59
2023-04-18T23:22:44.785Z,13.64
2023-04-18T23:25:49.214Z,13.58
2023-04-18T23:28:53.292Z,13.58
2023-04-18T23:31:56.553Z,13.61
2023-04-18T23:35:04.221Z,13.57
2023-04-18T23:38:07.588Z,13.55
2023-04-18T23:41:10.238Z,13.47
2023-04-18T23:44:13.953Z,13.47
2023-04-18T23:47:17.339Z,13.50
2023-04-18T23:50:21.149Z,13.54
2023-04-18T23:53:24.909Z,13.49
2023-04-18T23:56:50.018Z,13.65
2023-04-18T23:59:52.770Z,13.55
